Time;durP1;ratioP1;P1;durP2;ratioP2;P2;SDS_P1;SDS_P2;PMS_P1;PMS_P2;Temp;Humidity;BMP_temperature;BMP_pressure;BME280_temperature;BME280_humidity;BME280_pressure;Samples;Min_cycle;Max_cycle;Signal;HPM_P1;HPM_P2
2020/12/27 00:00:30;;;;;;;6.40;5.50;;;0.80;99.90;;;;;;4946986;29;20465;-80
2020/12/27 00:02:56;;;;;;;9.50;5.23;;;0.80;99.90;;;;;;4962336;29;20403;-81
2020/12/27 00:05:21;;;;;;;7.13;6.20;;;1.00;99.90;;;;;;4962769;29;20505;-80
2020/12/27 00:07:48;;;;;;;6.93;4.53;;;1.10;99.90;;;;;;4943698;29;20750;-81
2020/12/27 00:10:16;;;;;;;6.17;4.87;;;1.00;99.90;;;;;;4931176;28;20193;-80
2020/12/27 00:12:42;;;;;;;4.90;4.43;;;0.90;99.90;;;;;;4969898;28;20406;-80
2020/12/27 00:15:12;;;;;;;5.73;4.43;;;0.90;99.90;;;;;;5021647;28;20797;-81
2020/12/27 00:17:45;;;;;;;7.40;5.10;;;1.00;99.90;;;;;;4991227;28;20810;-81
2020/12/27 00:20:11;;;;;;;12.53;6.30;;;1.00;99.90;;;;;;4989988;28;20952;-80
2020/12/27 00:22:36;;;;;;;9.40;5.70;;;0.90;99.90;;;;;;5019171;28;20487;-81
2020/12/27 00:25:03;;;;;;;6.80;6.10;;;0.90;99.90;;;;;;5022306;28;20928;-80
2020/12/27 00:27:29;;;;;;;6.03;4.10;;;0.80;99.90;;;;;;5022302;28;20216;-80
2020/12/27 00:29:58;;;;;;;7.63;3.90;;;0.80;99.90;;;;;;5022073;28;20766;-80
2020/12/27 00:32:33;;;;;;;11.40;4.20;;;0.80;99.90;;;;;;5022531;28;20448;-80
2020/12/27 00:35:02;;;;;;;5.83;4.40;;;0.70;99.90;;;;;;5007206;28;20396;-80
2020/12/27 00:37:31;;;;;;;12.07;4.50;;;0.60;99.90;;;;;;5022702;28;20435;-80
2020/12/27 00:39:57;;;;;;;4.80;3.73;;;0.60;99.90;;;;;;5053618;28;20446;-80
2020/12/27 00:42:24;;;;;;;4.20;3.70;;;0.50;99.90;;;;;;5063057;28;20429;-80
2020/12/27 00:44:50;;;;;;;9.17;6.10;;;0.60;99.90;;;;;;5045732;28;20164;-80
2020/12/27 00:47:16;;;;;;;10.40;5.40;;;0.60;99.90;;;;;;5061498;28;20447;-80
2020/12/27 00:49:42;;;;;;;7.20;4.60;;;0.60;99.90;;;;;;5062212;28;20214;-80
2020/12/27 00:52:07;;;;;;;5.90;5.03;;;0.60;99.90;;;;;;5045838;28;20243;-80
2020/12/27 00:54:34;;;;;;;9.13;5.33;;;0.50;99.90;;;;;;5062748;28;20177;-81
2020/12/27 00:57:03;;;;;;;5.13;3.40;;;0.60;99.90;;;;;;5062708;28;20164;-81
2020/12/27 00:59:32;;;;;;;10.90;4.73;;;0.60;99.90;;;;;;5045569;28;20456;-80
2020/12/27 01:02:00;;;;;;;7.20;4.37;;;0.60;99.90;;;;;;5063052;28;20462;-81
2020/12/27 01:04:26;;;;;;;5.03;3.30;;;0.60;99.90;;;;;;5063451;28;20156;-80
2020/12/27 01:06:52;;;;;;;6.17;4.63;;;0.70;99.90;;;;;;5046054;28;20485;-80
2020/12/27 01:09:18;;;;;;;5.13;4.10;;;0.50;99.90;;;;;;5046336;28;20183;-81
2020/12/27 01:11:45;;;;;;;4.03;3.10;;;0.30;99.90;;;;;;5046429;28;20168;-80
2020/12/27 01:14:14;;;;;;;5.83;5.37;;;0.50;99.90;;;;;;5046092;28;20163;-81
2020/12/27 01:16:45;;;;;;;5.50;4.30;;;0.50;99.90;;;;;;5062885;28;20395;-80
2020/12/27 01:19:11;;;;;;;9.30;5.30;;;0.40;99.90;;;;;;5044670;28;20164;-80
2020/12/27 01:21:41;;;;;;;5.70;3.80;;;0.20;99.90;;;;;;5061083;28;20473;-80
2020/12/27 01:24:07;;;;;;;7.73;4.37;;;0.30;99.90;;;;;;5061262;28;20416;-80
2020/12/27 01:26:34;;;;;;;5.03;4.53;;;0.00;99.90;;;;;;5040328;28;20407;-80
2020/12/27 01:29:03;;;;;;;5.63;4.60;;;0.00;99.90;;;;;;5022728;28;20927;-80
2020/12/27 01:31:30;;;;;;;5.17;3.70;;;-0.10;99.90;;;;;;5023824;28;20418;-80
2020/12/27 01:34:00;;;;;;;9.97;4.53;;;-0.20;99.90;;;;;;5024102;28;20848;-80
2020/12/27 01:36:29;;;;;;;8.37;4.97;;;-0.10;99.90;;;;;;5023550;28;20408;-80
2020/12/27 01:38:57;;;;;;;5.43;4.33;;;0.00;99.90;;;;;;5039692;28;20402;-80
2020/12/27 01:41:23;;;;;;;4.90;4.50;;;0.00;99.90;;;;;;5022301;28;20463;-80
2020/12/27 01:44:06;;;;;;;3.17;2.80;;;-0.10;99.90;;;;;;5023529;28;20391;-79
2020/12/27 01:46:39;;;;;;;13.57;5.10;;;-0.20;99.90;;;;;;5020199;28;20470;-79
2020/12/27 01:49:29;;;;;;;4.53;4.10;;;-0.10;99.90;;;;;;4981968;28;20414;-79
2020/12/27 01:52:19;;;;;;;8.03;6.43;;;-0.10;99.90;;;;;;4951450;28;20414;-79
2020/12/27 01:54:46;;;;;;;4.93;3.67;;;0.00;99.90;;;;;;4910236;29;20420;-79
2020/12/27 01:57:19;;;;;;;16.83;4.17;;;-0.10;99.90;;;;;;4916593;29;20502;-79
2020/12/27 01:59:45;;;;;;;4.57;2.90;;;-0.10;99.90;;;;;;4928413;28;20447;-77
2020/12/27 02:02:15;;;;;;;7.73;5.80;;;0.10;99.90;;;;;;4960362;28;20456;-77
2020/12/27 02:05:06;;;;;;;3.73;3.43;;;0.00;99.90;;;;;;5362555;23;20479;-80
2020/12/27 02:07:36;;;;;;;3.63;3.30;;;-0.10;99.90;;;;;;5089598;28;20413;-80
2020/12/27 02:10:02;;;;;;;3.47;3.17;;;0.00;99.90;;;;;;5087424;28;20720;-80
2020/12/27 02:12:31;;;;;;;4.63;4.13;;;-0.20;99.90;;;;;;5121872;28;20411;-80
2020/12/27 02:14:57;;;;;;;3.30;3.00;;;-0.40;99.90;;;;;;5086800;28;20447;-80
2020/12/27 02:17:23;;;;;;;4.90;4.50;;;-0.30;99.90;;;;;;5046161;28;20222;-79
2020/12/27 02:19:52;;;;;;;4.33;3.93;;;-0.10;99.90;;;;;;5043513;28;20212;-80
2020/12/27 02:22:18;;;;;;;8.07;5.40;;;-0.30;99.90;;;;;;5058905;28;20406;-80
2020/12/27 02:24:49;;;;;;;10.33;4.67;;;-0.30;99.90;;;;;;5038699;28;20427;-80
2020/12/27 02:27:17;;;;;;;18.90;5.60;;;-0.10;99.90;;;;;;5021917;28;20208;-80
2020/12/27 02:29:43;;;;;;;8.50;4.20;;;-0.10;99.90;;;;;;5038066;28;20439;-80
2020/12/27 02:32:09;;;;;;;4.77;4.33;;;-0.40;99.90;;;;;;5020995;28;20520;-80
2020/12/27 02:34:36;;;;;;;4.47;3.83;;;-0.30;99.90;;;;;;5037871;28;20191;-80
2020/12/27 02:37:01;;;;;;;5.87;4.70;;;-0.30;99.90;;;;;;5001922;28;20193;-80
2020/12/27 02:39:30;;;;;;;7.03;3.50;;;-0.20;99.90;;;;;;4962587;28;20415;-80
2020/12/27 02:41:57;;;;;;;5.30;3.70;;;-0.20;99.90;;;;;;4946980;28;20241;-80
2020/12/27 02:44:23;;;;;;;4.80;3.00;;;0.00;99.90;;;;;;4945995;28;20509;-80
2020/12/27 02:46:50;;;;;;;3.40;3.07;;;-0.10;99.90;;;;;;4946031;28;20450;-80
2020/12/27 02:49:16;;;;;;;7.00;4.63;;;-0.30;99.90;;;;;;4962529;28;20182;-80
2020/12/27 02:51:44;;;;;;;7.43;4.10;;;-0.20;99.90;;;;;;4977731;28;20445;-79
2020/12/27 02:54:16;;;;;;;5.20;3.50;;;-0.20;99.90;;;;;;4963211;28;20476;-80
2020/12/27 02:56:42;;;;;;;5.47;3.83;;;-0.20;99.90;;;;;;4937969;29;20388;-80
2020/12/27 02:59:08;;;;;;;6.43;3.30;;;-0.20;99.90;;;;;;4937273;29;20476;-80
2020/12/27 03:01:33;;;;;;;4.23;2.93;;;-0.10;99.90;;;;;;4937116;29;20595;-80
2020/12/27 03:04:00;;;;;;;4.63;4.23;;;0.00;99.90;;;;;;4955053;29;20188;-80
2020/12/27 03:06:29;;;;;;;4.27;3.87;;;0.00;99.90;;;;;;4939785;29;20531;-80
2020/12/27 03:08:57;;;;;;;3.90;3.37;;;-0.10;99.90;;;;;;4925554;29;20420;-79
2020/12/27 03:11:24;;;;;;;4.77;3.60;;;-0.20;99.90;;;;;;4942975;29;20863;-80
2020/12/27 03:13:51;;;;;;;3.83;3.60;;;-0.10;99.90;;;;;;4943573;29;20928;-80
2020/12/27 03:16:19;;;;;;;5.73;4.10;;;-0.10;99.90;;;;;;4959269;29;20801;-80
2020/12/27 03:18:47;;;;;;;4.60;3.53;;;0.00;99.90;;;;;;4940310;29;20455;-80
2020/12/27 03:21:14;;;;;;;3.73;2.63;;;-0.10;99.90;;;;;;4908617;29;20535;-80
2020/12/27 03:23:40;;;;;;;4.00;3.10;;;-0.20;99.90;;;;;;4908029;29;20417;-80
2020/12/27 03:26:06;;;;;;;8.83;4.60;;;-0.30;99.90;;;;;;4930608;29;20449;-80
2020/12/27 03:28:32;;;;;;;2.67;2.47;;;-0.40;99.90;;;;;;4991901;28;20417;-80
2020/12/27 03:31:22;;;;;;;3.53;2.77;;;-0.30;99.90;;;;;;4986984;28;20255;-79
2020/12/27 03:36:43;;;;;;;4.43;3.40;;;-0.30;99.90;;;;;;5071170;28;20493;-80
2020/12/27 03:39:11;;;;;;;3.30;3.00;;;-0.20;99.90;;;;;;5031618;28;20376;-80
2020/12/27 03:41:40;;;;;;;3.80;2.57;;;-0.20;99.90;;;;;;5029446;28;20176;-80
2020/12/27 03:44:12;;;;;;;3.40;3.00;;;-0.20;99.90;;;;;;5028949;28;20394;-80
2020/12/27 03:46:38;;;;;;;3.83;3.57;;;-0.10;99.90;;;;;;4996190;28;20426;-80
2020/12/27 03:49:05;;;;;;;5.50;5.00;;;-0.10;99.90;;;;;;5041493;28;20407;-80
2020/12/27 03:51:31;;;;;;;9.27;4.07;;;0.00;99.90;;;;;;4998876;28;20508;-80
2020/12/27 03:53:57;;;;;;;5.13;3.80;;;-0.10;99.90;;;;;;4966106;28;20481;-80
2020/12/27 03:56:24;;;;;;;3.47;2.80;;;0.00;99.90;;;;;;4965377;28;20208;-79
2020/12/27 03:58:51;;;;;;;6.07;4.33;;;0.10;99.90;;;;;;4966621;28;20187;-80
2020/12/27 04:01:18;;;;;;;4.10;3.80;;;-0.10;99.90;;;;;;4982409;28;20472;-80
2020/12/27 04:03:43;;;;;;;4.63;4.30;;;-0.10;99.90;;;;;;4982514;28;20517;-80
2020/12/27 04:06:11;;;;;;;4.93;3.23;;;0.00;99.90;;;;;;4950885;28;20425;-80
2020/12/27 04:08:38;;;;;;;5.13;3.17;;;-0.10;99.90;;;;;;4950344;28;20272;-79
2020/12/27 04:11:04;;;;;;;5.40;3.97;;;-0.20;99.90;;;;;;4983228;28;20569;-80
2020/12/27 04:13:30;;;;;;;5.40;3.57;;;-0.20;99.90;;;;;;4966466;28;20420;-80
2020/12/27 04:15:55;;;;;;;3.37;3.07;;;-0.20;99.90;;;;;;4967143;28;20510;-80
2020/12/27 04:18:28;;;;;;;6.90;3.50;;;-0.10;99.90;;;;;;4968414;28;20206;-80
2020/12/27 04:20:54;;;;;;;4.40;4.00;;;-0.30;99.90;;;;;;4980741;28;20475;-80
2020/12/27 04:23:21;;;;;;;6.17;3.77;;;-0.20;99.90;;;;;;5007743;28;20989;-80
2020/12/27 04:25:49;;;;;;;10.17;4.00;;;-0.10;99.90;;;;;;5008406;28;20408;-80
2020/12/27 04:28:17;;;;;;;3.87;2.30;;;-0.40;99.90;;;;;;5031152;28;20574;-78
2020/12/27 04:30:44;;;;;;;3.40;3.10;;;-0.20;99.90;;;;;;5087579;23;20539;-79
2020/12/27 04:33:10;;;;;;;5.20;4.70;;;-0.40;99.90;;;;;;5197954;22;20546;-78
2020/12/27 04:35:36;;;;;;;3.80;2.87;;;-0.40;99.90;;;;;;5056852;28;20432;-80
2020/12/27 04:38:05;;;;;;;3.43;3.00;;;-0.40;99.90;;;;;;5069058;28;20854;-80
2020/12/27 04:40:31;;;;;;;3.53;3.23;;;-0.50;99.90;;;;;;5033976;28;20460;-80
2020/12/27 04:42:58;;;;;;;4.67;4.20;;;-0.40;99.90;;;;;;5043401;28;20425;-80
2020/12/27 04:45:24;;;;;;;4.70;3.83;;;-0.70;99.90;;;;;;5026632;28;20206;-79
2020/12/27 04:47:52;;;;;;;2.30;2.00;;;-0.40;99.90;;;;;;5024023;28;20441;-80
2020/12/27 04:50:19;;;;;;;3.80;3.20;;;-0.60;99.90;;;;;;5026679;28;20937;-80
2020/12/27 04:52:47;;;;;;;2.60;2.30;;;-0.70;99.90;;;;;;4983281;28;20421;-80
2020/12/27 04:55:13;;;;;;;4.87;4.37;;;-0.90;99.90;;;;;;5014931;28;20882;-80
2020/12/27 04:57:47;;;;;;;4.70;4.10;;;-0.90;99.90;;;;;;4999617;28;20493;-80
2020/12/27 05:00:16;;;;;;;5.77;3.80;;;-0.80;99.90;;;;;;4999832;28;20479;-79
2020/12/27 05:02:45;;;;;;;5.80;4.20;;;-0.80;99.90;;;;;;5003564;28;20492;-80
2020/12/27 05:05:14;;;;;;;7.03;4.17;;;-0.80;99.90;;;;;;5006292;28;20397;-79
2020/12/27 05:07:43;;;;;;;4.27;2.70;;;-1.00;99.90;;;;;;4978111;28;20431;-79
2020/12/27 05:10:12;;;;;;;3.83;3.03;;;-0.90;99.90;;;;;;5006647;28;20451;-79
2020/12/27 05:12:38;;;;;;;5.13;3.13;;;-0.80;99.90;;;;;;5043605;22;20399;-80
2020/12/27 05:15:09;;;;;;;10.30;4.43;;;-0.80;99.90;;;;;;5102915;28;20179;-79
2020/12/27 05:17:37;;;;;;;3.80;3.50;;;-0.90;99.90;;;;;;5081857;28;20388;-79
2020/12/27 05:20:14;;;;;;;4.60;3.07;;;-0.90;99.90;;;;;;5059119;28;20457;-79
2020/12/27 05:22:41;;;;;;;4.80;2.77;;;-0.90;99.90;;;;;;5086438;28;20464;-79
2020/12/27 05:27:44;;;;;;;4.20;3.80;;;-0.60;99.90;;;;;;5084633;22;20489;-79
2020/12/27 05:30:10;;;;;;;3.67;3.30;;;-0.90;99.90;;;;;;5041299;28;20442;-79
2020/12/27 05:32:37;;;;;;;5.23;3.17;;;-0.90;99.90;;;;;;5016403;28;20412;-80
2020/12/27 05:35:11;;;;;;;2.80;2.60;;;-1.00;99.90;;;;;;5020181;28;20224;-80
2020/12/27 05:37:40;;;;;;;3.60;3.20;;;-1.00;99.90;;;;;;4987652;28;20403;-79
2020/12/27 05:40:09;;;;;;;4.33;4.03;;;-0.90;99.90;;;;;;5019658;28;20463;-80
2020/12/27 05:42:41;;;;;;;2.17;1.97;;;-1.10;99.90;;;;;;4988697;28;20399;-80
2020/12/27 05:45:16;;;;;;;9.50;7.10;;;-1.10;99.90;;;;;;5003502;28;20405;-79
2020/12/27 05:47:43;;;;;;;3.73;3.07;;;-1.20;99.90;;;;;;4987557;28;20192;-80
2020/12/27 05:50:19;;;;;;;4.20;2.60;;;-1.20;99.90;;;;;;4988863;28;20389;-80
2020/12/27 05:52:47;;;;;;;6.30;4.27;;;-1.30;99.90;;;;;;5004609;28;20447;-80
2020/12/27 05:55:24;;;;;;;4.30;2.17;;;-1.20;99.90;;;;;;4987328;28;20460;-80
2020/12/27 05:57:55;;;;;;;3.47;2.70;;;-1.20;99.90;;;;;;4967594;28;20460;-79
2020/12/27 06:00:25;;;;;;;3.33;2.33;;;-1.30;99.90;;;;;;4980499;28;20911;-80
2020/12/27 06:02:58;;;;;;;3.27;3.07;;;-1.20;99.90;;;;;;4950014;28;20407;-80
2020/12/27 06:05:51;;;;;;;3.70;3.40;;;-1.20;99.90;;;;;;4964583;28;20406;-80
2020/12/27 06:08:48;;;;;;;8.70;5.13;;;-1.20;99.90;;;;;;4997000;28;20410;-79
2020/12/27 06:11:35;;;;;;;3.17;2.97;;;-1.20;99.90;;;;;;4980567;28;20415;-80
2020/12/27 06:14:34;;;;;;;6.40;3.97;;;-1.30;99.90;;;;;;4980660;28;20430;-79
2020/12/27 06:17:11;;;;;;;4.10;3.37;;;-1.30;99.90;;;;;;4980718;28;20454;-80
2020/12/27 06:19:46;;;;;;;5.50;4.60;;;-1.30;99.90;;;;;;4992716;28;20458;-79
2020/12/27 06:22:18;;;;;;;2.80;2.50;;;-1.40;99.90;;;;;;4962637;28;20430;-80
2020/12/27 06:24:50;;;;;;;10.33;3.87;;;-1.20;99.90;;;;;;4978848;28;20407;-80
2020/12/27 06:27:16;;;;;;;4.20;3.20;;;-1.30;99.90;;;;;;4978740;28;20469;-79
2020/12/27 06:29:53;;;;;;;3.20;3.00;;;-1.30;99.90;;;;;;4965650;28;20813;-80
2020/12/27 06:32:26;;;;;;;5.77;3.07;;;-1.20;99.90;;;;;;4985305;28;20185;-80
2020/12/27 06:34:53;;;;;;;10.43;4.80;;;-1.00;99.90;;;;;;4969420;28;20500;-80
2020/12/27 06:37:24;;;;;;;4.87;4.17;;;-0.90;99.90;;;;;;4985711;28;20485;-80
2020/12/27 06:39:49;;;;;;;8.63;5.17;;;-1.10;99.90;;;;;;4986083;28;20508;-80
2020/12/27 06:42:18;;;;;;;3.83;2.80;;;-1.00;99.90;;;;;;4988654;28;20409;-80
2020/12/27 06:44:48;;;;;;;3.47;2.73;;;-1.10;99.90;;;;;;5004241;28;20178;-80
2020/12/27 06:47:18;;;;;;;5.73;4.70;;;-1.00;99.90;;;;;;5017362;28;20764;-80
2020/12/27 06:50:15;;;;;;;3.27;2.80;;;-1.10;99.90;;;;;;5028356;28;20399;-80
2020/12/27 06:52:41;;;;;;;2.23;2.03;;;-1.10;99.90;;;;;;5027760;28;20407;-80
2020/12/27 06:55:08;;;;;;;5.63;4.50;;;-1.10;99.90;;;;;;4968015;28;20434;-80
2020/12/27 06:57:49;;;;;;;2.80;2.60;;;-1.00;99.90;;;;;;4949309;29;20441;-79
2020/12/27 07:00:30;;;;;;;4.43;4.03;;;-1.10;99.90;;;;;;4931825;29;20455;-80
2020/12/27 07:03:18;;;;;;;5.23;2.17;;;-1.00;99.90;;;;;;4948199;29;20466;-80
2020/12/27 07:05:50;;;;;;;3.17;2.93;;;-1.00;99.90;;;;;;4946799;29;20628;-80
2020/12/27 07:08:38;;;;;;;4.93;2.63;;;-1.10;99.90;;;;;;4906512;29;20939;-80
2020/12/27 07:11:30;;;;;;;4.90;3.63;;;-1.20;99.90;;;;;;4888383;29;20437;-80
2020/12/27 07:13:59;;;;;;;6.00;3.20;;;-1.00;99.90;;;;;;4888079;29;20427;-81
2020/12/27 07:16:48;;;;;;;2.93;2.73;;;-1.00;99.90;;;;;;4863373;29;20407;-79
2020/12/27 07:19:19;;;;;;;3.27;2.97;;;-1.00;99.90;;;;;;4888403;29;20402;-80
2020/12/27 07:21:49;;;;;;;6.57;3.60;;;-1.00;99.90;;;;;;4883513;29;20439;-78
2020/12/27 07:24:22;;;;;;;5.30;4.00;;;-1.10;99.90;;;;;;4865501;29;20416;-78
2020/12/27 07:26:50;;;;;;;4.80;2.70;;;-1.10;99.90;;;;;;4895438;29;20541;-78
2020/12/27 07:29:38;;;;;;;2.63;2.43;;;-1.00;99.90;;;;;;4884340;29;20422;-78
2020/12/27 07:32:05;;;;;;;5.63;3.57;;;-1.10;99.90;;;;;;4880868;29;20871;-79
2020/12/27 07:34:34;;;;;;;7.90;3.73;;;-0.90;99.90;;;;;;4868349;29;20486;-80
2020/12/27 07:37:03;;;;;;;2.80;2.40;;;-0.80;99.90;;;;;;4867179;29;20431;-79
2020/12/27 07:39:53;;;;;;;4.13;3.40;;;-0.80;99.90;;;;;;4900138;29;20508;-79
2020/12/27 07:42:22;;;;;;;8.30;5.20;;;-0.70;99.90;;;;;;4939274;29;20461;-80
2020/12/27 07:44:49;;;;;;;5.43;3.23;;;-0.70;99.90;;;;;;4924563;29;20413;-79
2020/12/27 07:47:18;;;;;;;4.10;2.97;;;-0.90;99.90;;;;;;4914268;29;20432;-79
2020/12/27 07:50:16;;;;;;;2.70;2.40;;;-0.80;99.90;;;;;;4927162;29;20439;-79
2020/12/27 07:52:44;;;;;;;7.73;3.60;;;-0.80;99.90;;;;;;4942925;29;20484;-79
2020/12/27 07:55:10;;;;;;;6.73;4.33;;;-0.70;99.90;;;;;;4927950;29;20944;-80
2020/12/27 07:57:39;;;;;;;3.80;3.50;;;-0.60;99.90;;;;;;4915266;29;20439;-79
2020/12/27 08:00:07;;;;;;;5.47;3.63;;;-0.40;99.90;;;;;;4947475;28;20469;-80
2020/12/27 08:02:35;;;;;;;4.20;3.53;;;-0.40;99.90;;;;;;4968315;28;20428;-80
2020/12/27 08:05:23;;;;;;;7.70;4.50;;;-0.30;99.90;;;;;;4951771;29;20526;-80
2020/12/27 08:07:53;;;;;;;4.03;3.73;;;-0.20;99.90;;;;;;4965157;29;20419;-79
2020/12/27 08:10:26;;;;;;;5.07;3.20;;;-0.40;99.90;;;;;;4934529;29;20406;-79
2020/12/27 08:12:56;;;;;;;2.60;2.40;;;-0.30;99.90;;;;;;4948637;28;20903;-80
2020/12/27 08:15:23;;;;;;;5.37;4.63;;;-0.10;99.90;;;;;;4973741;28;20463;-80
2020/12/27 08:18:00;;;;;;;3.20;2.90;;;-0.20;99.90;;;;;;5006807;28;20917;-80
2020/12/27 08:20:31;;;;;;;3.17;2.30;;;-0.30;99.90;;;;;;4990254;28;20506;-79
2020/12/27 08:23:02;;;;;;;11.73;3.50;;;-0.40;99.90;;;;;;4973694;28;20515;-80
2020/12/27 08:25:31;;;;;;;4.50;3.10;;;-0.40;99.90;;;;;;5006393;28;20408;-79
2020/12/27 08:27:59;;;;;;;3.73;2.50;;;-0.50;99.90;;;;;;4989638;28;20475;-80
2020/12/27 08:30:29;;;;;;;2.60;2.40;;;-0.60;99.90;;;;;;4985902;28;20456;-80
2020/12/27 08:33:14;;;;;;;5.43;4.40;;;-0.70;99.90;;;;;;4974171;28;20398;-78
2020/12/27 08:35:46;;;;;;;1.87;1.73;;;-0.50;99.90;;;;;;4972232;28;20902;-80
2020/12/27 08:38:26;;;;;;;3.37;2.90;;;-0.60;99.90;;;;;;4983402;28;20399;-80
2020/12/27 08:41:11;;;;;;;3.07;2.70;;;-0.60;99.90;;;;;;4966107;28;20957;-80
2020/12/27 08:44:01;;;;;;;3.20;3.00;;;-0.70;99.90;;;;;;4984479;28;20413;-80
2020/12/27 08:46:36;;;;;;;4.57;2.83;;;-0.60;99.90;;;;;;4985870;28;20921;-80
2020/12/27 08:49:08;;;;;;;2.80;2.60;;;-0.70;99.90;;;;;;5007276;28;20459;-80
2020/12/27 08:51:42;;;;;;;3.53;3.33;;;-0.60;99.90;;;;;;5018102;28;20516;-80
2020/12/27 08:54:11;;;;;;;2.23;2.03;;;-0.60;99.90;;;;;;5001713;28;20506;-80
2020/12/27 08:56:43;;;;;;;2.47;2.27;;;-0.50;99.90;;;;;;4999414;28;20393;-80
2020/12/27 08:59:21;;;;;;;2.30;2.20;;;-0.50;99.90;;;;;;4953020;28;20872;-80
2020/12/27 09:01:50;;;;;;;4.53;2.97;;;-0.30;99.90;;;;;;4966501;28;20453;-80
2020/12/27 09:04:20;;;;;;;3.63;2.57;;;-0.10;99.90;;;;;;4928183;29;20411;-80
2020/12/27 09:07:02;;;;;;;3.27;2.97;;;-0.30;99.90;;;;;;4959160;28;20407;-80
2020/12/27 09:09:31;;;;;;;4.40;2.90;;;-0.40;99.90;;;;;;4924228;29;20412;-80
2020/12/27 09:11:56;;;;;;;7.17;3.20;;;-0.30;99.90;;;;;;4942147;29;20408;-80
2020/12/27 09:14:37;;;;;;;4.77;3.43;;;-0.40;99.90;;;;;;4925787;29;20404;-80
2020/12/27 09:17:13;;;;;;;3.37;2.70;;;-0.30;99.90;;;;;;4926769;29;20184;-80
2020/12/27 09:19:47;;;;;;;1.87;1.77;;;-0.30;99.90;;;;;;4942214;29;20435;-80
2020/12/27 09:22:15;;;;;;;5.30;2.90;;;-0.30;99.90;;;;;;4925565;29;20408;-79
2020/12/27 09:24:44;;;;;;;2.15;1.98;;;-0.10;99.90;;;;;;4926030;29;20428;-79
2020/12/27 09:27:14;;;;;;;4.27;2.90;;;-0.10;99.90;;;;;;4951334;28;20223;-79
2020/12/27 09:29:39;;;;;;;4.50;2.73;;;0.00;99.90;;;;;;4973225;28;20423;-79
2020/12/27 09:32:11;;;;;;;2.73;2.50;;;0.00;99.90;;;;;;4963083;28;20395;-79
2020/12/27 09:34:38;;;;;;;3.10;2.90;;;-0.20;99.90;;;;;;4954481;28;20523;-79
2020/12/27 09:37:15;;;;;;;3.23;2.40;;;-0.20;99.90;;;;;;4963008;28;20388;-79
2020/12/27 09:40:03;;;;;;;2.60;2.40;;;-0.20;99.90;;;;;;4962904;28;20410;-79
2020/12/27 09:42:32;;;;;;;3.83;2.17;;;0.00;99.90;;;;;;4963516;28;20444;-79
2020/12/27 09:45:15;;;;;;;3.67;3.13;;;-0.10;99.90;;;;;;4962805;28;20456;-79
2020/12/27 09:47:53;;;;;;;2.83;2.63;;;0.10;99.90;;;;;;4914844;28;20418;-79
2020/12/27 09:50:34;;;;;;;3.03;2.73;;;0.30;99.90;;;;;;4970934;28;20436;-79
2020/12/27 09:53:00;;;;;;;3.33;3.10;;;0.20;99.90;;;;;;4990000;28;20917;-79
2020/12/27 09:55:29;;;;;;;4.10;3.77;;;0.40;99.90;;;;;;5003722;28;20381;-79
2020/12/27 09:57:55;;;;;;;3.20;2.40;;;0.70;99.90;;;;;;5015588;28;20423;-79
2020/12/27 10:00:22;;;;;;;3.10;2.70;;;0.70;99.90;;;;;;5009288;28;20448;-79
2020/12/27 10:02:53;;;;;;;2.87;2.60;;;0.80;99.90;;;;;;5002976;28;20408;-79
2020/12/27 10:05:25;;;;;;;3.67;2.50;;;0.90;99.90;;;;;;5018240;28;20468;-79
2020/12/27 10:08:00;;;;;;;3.30;2.77;;;1.10;99.90;;;;;;5002393;28;20757;-79
2020/12/27 10:10:27;;;;;;;3.87;3.17;;;1.10;99.90;;;;;;5002508;28;20420;-80
2020/12/27 10:12:57;;;;;;;2.67;1.93;;;1.40;99.90;;;;;;5002173;28;20393;-80
2020/12/27 10:15:23;;;;;;;7.30;4.63;;;1.30;99.90;;;;;;4986244;28;20877;-79
2020/12/27 10:17:50;;;;;;;2.93;2.50;;;0.90;99.90;;;;;;4985470;28;20441;-79
2020/12/27 10:20:18;;;;;;;4.50;3.07;;;1.20;99.90;;;;;;5002248;28;20252;-79
2020/12/27 10:22:47;;;;;;;3.57;2.43;;;1.00;99.90;;;;;;5018866;28;20392;-79
2020/12/27 10:25:13;;;;;;;3.40;3.10;;;1.00;99.90;;;;;;4985377;28;20447;-79
2020/12/27 10:27:40;;;;;;;3.53;2.67;;;1.10;99.90;;;;;;5001958;28;20227;-80
2020/12/27 10:30:06;;;;;;;3.30;2.53;;;1.20;99.90;;;;;;5002486;28;20748;-79
2020/12/27 10:32:36;;;;;;;2.67;2.43;;;1.80;99.90;;;;;;4981531;28;20436;-79
2020/12/27 10:35:07;;;;;;;3.63;2.87;;;1.50;99.90;;;;;;4963324;28;20415;-79
2020/12/27 10:37:36;;;;;;;3.60;2.77;;;1.60;99.90;;;;;;4948245;28;20432;-79
2020/12/27 10:40:04;;;;;;;4.50;3.33;;;1.30;99.90;;;;;;4949048;28;20530;-79
2020/12/27 10:42:30;;;;;;;5.30;3.37;;;1.10;99.90;;;;;;4980818;28;20470;-80
2020/12/27 10:44:56;;;;;;;2.13;1.80;;;1.30;99.90;;;;;;4948718;28;20659;-80
2020/12/27 10:47:23;;;;;;;2.73;2.50;;;1.40;99.90;;;;;;4929150;29;20278;-80
2020/12/27 10:49:52;;;;;;;5.43;3.73;;;1.30;99.90;;;;;;4929974;29;20187;-80
2020/12/27 10:52:18;;;;;;;2.90;2.60;;;1.20;99.90;;;;;;4947022;29;20920;-80
2020/12/27 10:54:44;;;;;;;3.90;3.53;;;1.30;99.90;;;;;;4967013;28;20472;-80
2020/12/27 10:57:10;;;;;;;4.60;2.90;;;1.60;99.90;;;;;;4967761;28;20511;-78
2020/12/27 10:59:37;;;;;;;3.27;2.70;;;1.40;99.90;;;;;;4942092;29;20430;-78
2020/12/27 11:02:03;;;;;;;3.50;2.60;;;1.30;99.90;;;;;;4957130;29;20401;-77
2020/12/27 11:04:29;;;;;;;2.53;2.33;;;1.40;99.90;;;;;;4916876;29;20784;-79
2020/12/27 11:06:54;;;;;;;2.03;1.90;;;1.20;99.90;;;;;;4891914;29;20200;-80
2020/12/27 11:09:23;;;;;;;4.30;3.67;;;1.30;99.90;;;;;;4903239;29;20900;-80
2020/12/27 11:11:54;;;;;;;3.57;3.23;;;1.10;99.90;;;;;;4903150;29;20418;-80
2020/12/27 11:14:21;;;;;;;2.27;2.07;;;1.60;99.90;;;;;;4887833;29;20889;-80
2020/12/27 11:16:48;;;;;;;5.73;3.77;;;1.90;99.90;;;;;;4887308;29;20471;-80
2020/12/27 11:19:18;;;;;;;3.37;3.07;;;1.80;99.90;;;;;;4887615;29;20776;-80
2020/12/27 11:21:47;;;;;;;2.30;2.20;;;1.50;99.90;;;;;;4902764;29;20548;-79
2020/12/27 11:24:15;;;;;;;5.90;2.93;;;1.40;99.90;;;;;;4917937;29;20417;-80
2020/12/27 11:27:04;;;;;;;2.70;2.10;;;1.20;99.90;;;;;;4920270;29;20554;-80
2020/12/27 11:29:30;;;;;;;5.37;3.87;;;1.30;99.90;;;;;;4882208;29;20432;-80
2020/12/27 11:31:57;;;;;;;2.37;2.20;;;1.30;99.90;;;;;;4870816;29;20521;-80
2020/12/27 11:34:25;;;;;;;2.27;2.07;;;1.50;99.90;;;;;;4870410;29;20564;-80
2020/12/27 11:36:58;;;;;;;2.80;2.60;;;1.70;99.90;;;;;;4873736;29;20452;-79
2020/12/27 11:39:42;;;;;;;1.57;1.47;;;1.80;99.90;;;;;;4922213;29;20898;-80
2020/12/27 11:42:15;;;;;;;2.20;2.00;;;1.70;99.90;;;;;;4893366;29;20568;-80
2020/12/27 11:44:43;;;;;;;3.10;2.70;;;1.60;99.90;;;;;;4873783;29;20439;-80
2020/12/27 11:47:12;;;;;;;2.70;2.50;;;1.70;99.90;;;;;;4855291;29;20913;-80
2020/12/27 11:49:40;;;;;;;3.07;2.60;;;1.80;99.90;;;;;;4859298;29;20419;-80
2020/12/27 11:52:08;;;;;;;3.33;2.90;;;1.70;99.90;;;;;;4859996;29;20439;-80
2020/12/27 11:54:33;;;;;;;3.63;2.90;;;1.60;99.90;;;;;;4870744;29;20455;-80
2020/12/27 11:57:01;;;;;;;4.23;3.67;;;1.50;99.90;;;;;;4889799;29;20442;-80
2020/12/27 11:59:29;;;;;;;2.13;1.97;;;1.60;99.90;;;;;;4873279;29;20430;-79
2020/12/27 12:01:56;;;;;;;3.83;2.33;;;1.50;99.90;;;;;;4888835;29;20430;-80
2020/12/27 12:04:23;;;;;;;8.57;3.03;;;1.70;99.90;;;;;;4889739;29;20423;-79
2020/12/27 12:06:52;;;;;;;2.10;1.97;;;1.90;99.90;;;;;;4889987;29;20513;-80
2020/12/27 12:09:18;;;;;;;2.40;2.20;;;1.90;99.90;;;;;;4889799;29;20442;-80
2020/12/27 12:11:45;;;;;;;4.03;2.83;;;1.90;99.90;;;;;;4893225;29;20641;-80
2020/12/27 12:14:11;;;;;;;5.10;2.20;;;1.70;99.90;;;;;;4895616;29;20193;-80
2020/12/27 12:16:38;;;;;;;2.20;2.00;;;1.40;99.90;;;;;;4926435;29;20877;-80
2020/12/27 12:19:11;;;;;;;2.60;2.40;;;1.50;99.90;;;;;;4908710;29;20467;-80
2020/12/27 12:21:38;;;;;;;1.53;1.43;;;1.40;99.90;;;;;;4895135;29;20547;-80
2020/12/27 12:24:04;;;;;;;2.37;2.17;;;1.60;99.90;;;;;;4903174;29;20469;-80
2020/12/27 12:26:36;;;;;;;3.87;2.50;;;1.40;99.90;;;;;;4915325;29;20434;-79
2020/12/27 12:29:02;;;;;;;3.07;2.87;;;1.60;99.90;;;;;;4964889;29;20279;-79
2020/12/27 12:31:28;;;;;;;14.03;3.17;;;1.70;99.90;;;;;;4918083;29;20442;-79
2020/12/27 12:33:55;;;;;;;1.90;1.70;;;1.70;99.90;;;;;;4932928;29;20889;-79
2020/12/27 12:36:41;;;;;;;1.93;1.77;;;1.60;99.90;;;;;;4927928;29;20189;-80
2020/12/27 12:39:08;;;;;;;3.60;2.77;;;1.60;99.90;;;;;;4927473;29;20432;-80
2020/12/27 12:41:35;;;;;;;4.10;1.83;;;1.70;99.90;;;;;;4927293;29;20471;-80
2020/12/27 12:44:01;;;;;;;2.47;2.33;;;1.80;99.90;;;;;;4911741;29;20441;-80
2020/12/27 12:46:27;;;;;;;2.67;2.53;;;1.50;99.90;;;;;;4911697;29;20911;-80
2020/12/27 12:48:54;;;;;;;2.40;1.73;;;1.50;99.90;;;;;;4911944;29;20192;-80
2020/12/27 12:51:25;;;;;;;1.80;1.70;;;1.60;99.90;;;;;;4927047;29;20393;-80
2020/12/27 12:53:51;;;;;;;2.57;2.37;;;1.60;99.90;;;;;;4911699;29;20425;-78
2020/12/27 12:56:16;;;;;;;8.10;2.50;;;1.60;99.90;;;;;;4910084;29;20447;-79
2020/12/27 12:58:44;;;;;;;3.10;1.83;;;1.80;99.90;;;;;;4909135;29;20512;-79
2020/12/27 13:01:11;;;;;;;1.60;1.50;;;1.80;99.90;;;;;;4909123;29;20224;-79
2020/12/27 13:03:39;;;;;;;2.53;1.60;;;1.90;99.90;;;;;;4908665;29;20480;-79
2020/12/27 13:06:09;;;;;;;3.03;2.83;;;2.00;99.90;;;;;;4890084;29;20410;-79
2020/12/27 13:08:40;;;;;;;2.93;2.63;;;2.10;99.90;;;;;;4906635;29;20429;-79
2020/12/27 13:11:07;;;;;;;3.40;2.47;;;2.00;99.90;;;;;;4913834;29;20414;-80